sensor_id;sensor_type;location;lat;lon;timestamp;temperature;humidity
74224;SHT31;62585;49.706;18.216;2022-08-03T08:00:34;24.76;53.74
74224;SHT31;62585;49.706;18.216;2022-08-03T08:04:08;24.50;57.64
74224;SHT31;62585;49.706;18.216;2022-08-03T08:09:50;25.00;56.59
74224;SHT31;62585;49.706;18.216;2022-08-03T08:12:16;24.95;55.65
74224;SHT31;62585;49.706;18.216;2022-08-03T08:14:41;24.93;56.84
74224;SHT31;62585;49.706;18.216;2022-08-03T08:17:10;24.96;57.07
74224;SHT31;62585;49.706;18.216;2022-08-03T08:19:35;24.95;56.48
74224;SHT31;62585;49.706;18.216;2022-08-03T08:22:01;24.97;55.93
74224;SHT31;62585;49.706;18.216;2022-08-03T08:24:26;24.97;56.55
74224;SHT31;62585;49.706;18.216;2022-08-03T08:26:55;24.96;57.13
74224;SHT31;62585;49.706;18.216;2022-08-03T08:29:21;24.93;57.49
74224;SHT31;62585;49.706;18.216;2022-08-03T08:31:48;25.05;57.56
74224;SHT31;62585;49.706;18.216;2022-08-03T08:34:15;25.06;57.62
74224;SHT31;62585;49.706;18.216;2022-08-03T08:36:40;25.09;57.69
74224;SHT31;62585;49.706;18.216;2022-08-03T08:39:06;25.10;57.83
74224;SHT31;62585;49.706;18.216;2022-08-03T08:41:32;25.12;57.98
74224;SHT31;62585;49.706;18.216;2022-08-03T08:44:01;25.19;57.91
74224;SHT31;62585;49.706;18.216;2022-08-03T08:46:31;25.22;58.04
74224;SHT31;62585;49.706;18.216;2022-08-03T08:48:58;25.24;58.01
74224;SHT31;62585;49.706;18.216;2022-08-03T08:51:28;25.24;58.11
74224;SHT31;62585;49.706;18.216;2022-08-03T08:53:55;25.26;58.25
74224;SHT31;62585;49.706;18.216;2022-08-03T08:56:24;25.24;58.20
74224;SHT31;62585;49.706;18.216;2022-08-03T08:58:51;25.09;58.16
74224;SHT31;62585;49.706;18.216;2022-08-03T09:01:20;25.00;58.30
74224;SHT31;62585;49.706;18.216;2022-08-03T09:03:46;24.96;58.38
74224;SHT31;62585;49.706;18.216;2022-08-03T09:06:12;24.93;58.40
74224;SHT31;62585;49.706;18.216;2022-08-03T09:08:39;24.96;58.36
74224;SHT31;62585;49.706;18.216;2022-08-03T09:11:05;24.96;58.39
74224;SHT31;62585;49.706;18.216;2022-08-03T09:13:32;24.95;58.49
74224;SHT31;62585;49.706;18.216;2022-08-03T09:16:08;24.93;58.50
74224;SHT31;62585;49.706;18.216;2022-08-03T09:18:35;24.96;58.50
74224;SHT31;62585;49.706;18.216;2022-08-03T09:21:19;24.95;58.52
74224;SHT31;62585;49.706;18.216;2022-08-03T09:23:50;25.09;58.64
74224;SHT31;62585;49.706;18.216;2022-08-03T09:26:28;25.16;58.68
74224;SHT31;62585;49.706;18.216;2022-08-03T09:31:35;25.33;58.35
74224;SHT31;62585;49.706;18.216;2022-08-03T09:34:03;25.37;58.48
74224;SHT31;62585;49.706;18.216;2022-08-03T09:39:11;25.41;58.48
74224;SHT31;62585;49.706;18.216;2022-08-03T09:41:39;25.41;58.53
74224;SHT31;62585;49.706;18.216;2022-08-03T09:44:06;25.44;58.51
74224;SHT31;62585;49.706;18.216;2022-08-03T09:46:53;25.50;58.48
74224;SHT31;62585;49.706;18.216;2022-08-03T09:49:20;25.55;58.67
74224;SHT31;62585;49.706;18.216;2022-08-03T09:51:46;25.60;58.46
74224;SHT31;62585;49.706;18.216;2022-08-03T09:54:12;25.58;58.47
74224;SHT31;62585;49.706;18.216;2022-08-03T10:05:09;31.69;36.75
74224;SHT31;62585;49.706;18.216;2022-08-03T10:07:48;33.24;34.51
74224;SHT31;62585;49.706;18.216;2022-08-03T10:10:16;34.10;32.56
74224;SHT31;62585;49.706;18.216;2022-08-03T10:12:43;34.82;31.07
74224;SHT31;62585;49.706;18.216;2022-08-03T10:15:09;35.47;31.23
74224;SHT31;62585;49.706;18.216;2022-08-03T10:17:36;35.94;30.19
74224;SHT31;62585;49.706;18.216;2022-08-03T10:20:04;36.06;30.37
74224;SHT31;62585;49.706;18.216;2022-08-03T10:22:33;36.25;28.76
74224;SHT31;62585;49.706;18.216;2022-08-03T10:25:02;35.73;29.59
74224;SHT31;62585;49.706;18.216;2022-08-03T10:27:49;34.34;31.57
74224;SHT31;62585;49.706;18.216;2022-08-03T10:30:16;34.91;30.02
74224;SHT31;62585;49.706;18.216;2022-08-03T10:32:43;35.83;29.60
74224;SHT31;62585;49.706;18.216;2022-08-03T10:35:16;36.32;28.68
74224;SHT31;62585;49.706;18.216;2022-08-03T10:37:52;36.17;29.90
74224;SHT31;62585;49.706;18.216;2022-08-03T10:40:21;36.84;28.42
74224;SHT31;62585;49.706;18.216;2022-08-03T10:42:49;36.76;28.30
74224;SHT31;62585;49.706;18.216;2022-08-03T10:45:24;36.63;28.60
74224;SHT31;62585;49.706;18.216;2022-08-03T10:47:52;36.83;28.63
74224;SHT31;62585;49.706;18.216;2022-08-03T10:50:18;36.57;28.68
74224;SHT31;62585;49.706;18.216;2022-08-03T10:53:01;36.62;29.10
74224;SHT31;62585;49.706;18.216;2022-08-03T10:55:33;36.63;28.86
74224;SHT31;62585;49.706;18.216;2022-08-03T11:01:03;36.48;28.30
74224;SHT31;62585;49.706;18.216;2022-08-03T11:03:29;37.85;28.00
74224;SHT31;62585;49.706;18.216;2022-08-03T11:06:15;37.98;28.54
74224;SHT31;62585;49.706;18.216;2022-08-03T11:08:48;38.13;27.15
74224;SHT31;62585;49.706;18.216;2022-08-03T11:14:00;38.47;26.75
74224;SHT31;62585;49.706;18.216;2022-08-03T11:16:32;38.67;27.24
74224;SHT31;62585;49.706;18.216;2022-08-03T11:19:06;38.46;26.82
74224;SHT31;62585;49.706;18.216;2022-08-03T11:30:10;38.60;26.52
74224;SHT31;62585;49.706;18.216;2022-08-03T11:40:43;40.09;24.03
74224;SHT31;62585;49.706;18.216;2022-08-03T11:45:57;40.01;24.46
74224;SHT31;62585;49.706;18.216;2022-08-03T11:48:27;39.86;24.39
74224;SHT31;62585;49.706;18.216;2022-08-03T11:50:53;39.70;24.56
74224;SHT31;62585;49.706;18.216;2022-08-03T11:53:19;39.66;24.64
74224;SHT31;62585;49.706;18.216;2022-08-03T11:55:46;38.39;25.99
74224;SHT31;62585;49.706;18.216;2022-08-03T11:58:21;36.53;27.84
74224;SHT31;62585;49.706;18.216;2022-08-03T12:00:49;36.27;28.07
74224;SHT31;62585;49.706;18.216;2022-08-03T12:03:17;37.23;27.21
74224;SHT31;62585;49.706;18.216;2022-08-03T12:05:51;37.52;26.93
74224;SHT31;62585;49.706;18.216;2022-08-03T12:08:37;37.79;26.17
74224;SHT31;62585;49.706;18.216;2022-08-03T12:11:04;38.57;26.27
74224;SHT31;62585;49.706;18.216;2022-08-03T12:13:48;39.11;25.85
74224;SHT31;62585;49.706;18.216;2022-08-03T12:18:44;38.21;26.09
74224;SHT31;62585;49.706;18.216;2022-08-03T12:21:10;38.86;25.72
74224;SHT31;62585;49.706;18.216;2022-08-03T12:23:37;38.74;25.67
74224;SHT31;62585;49.706;18.216;2022-08-03T12:26:07;39.60;25.05
74224;SHT31;62585;49.706;18.216;2022-08-03T12:28:33;37.90;26.07
74224;SHT31;62585;49.706;18.216;2022-08-03T12:31:07;38.41;25.82
74224;SHT31;62585;49.706;18.216;2022-08-03T12:33:59;37.85;25.87
74224;SHT31;62585;49.706;18.216;2022-08-03T12:36:26;38.47;25.84
74224;SHT31;62585;49.706;18.216;2022-08-03T12:39:02;37.45;26.72
74224;SHT31;62585;49.706;18.216;2022-08-03T12:41:32;37.48;26.50
74224;SHT31;62585;49.706;18.216;2022-08-03T12:43:59;38.21;26.71
74224;SHT31;62585;49.706;18.216;2022-08-03T12:46:33;38.24;25.27
74224;SHT31;62585;49.706;18.216;2022-08-03T12:49:12;38.64;24.87
74224;SHT31;62585;49.706;18.216;2022-08-03T12:54:15;38.94;25.24
74224;SHT31;62585;49.706;18.216;2022-08-03T12:57:00;39.23;24.66
74224;SHT31;62585;49.706;18.216;2022-08-03T13:01:56;37.81;26.26
74224;SHT31;62585;49.706;18.216;2022-08-03T13:04:27;38.09;26.17
74224;SHT31;62585;49.706;18.216;2022-08-03T13:07:04;37.81;26.12
74224;SHT31;62585;49.706;18.216;2022-08-03T13:12:21;37.39;27.34
74224;SHT31;62585;49.706;18.216;2022-08-03T13:14:50;37.06;27.10
74224;SHT31;62585;49.706;18.216;2022-08-03T13:17:16;36.29;27.33
74224;SHT31;62585;49.706;18.216;2022-08-03T13:19:42;35.23;28.70
74224;SHT31;62585;49.706;18.216;2022-08-03T13:22:22;35.40;29.09
74224;SHT31;62585;49.706;18.216;2022-08-03T13:24:50;37.24;27.42
74224;SHT31;62585;49.706;18.216;2022-08-03T13:27:17;37.82;25.31
74224;SHT31;62585;49.706;18.216;2022-08-03T13:29:42;38.99;25.03
74224;SHT31;62585;49.706;18.216;2022-08-03T13:32:09;39.25;24.07
74224;SHT31;62585;49.706;18.216;2022-08-03T13:34:35;39.02;24.75
74224;SHT31;62585;49.706;18.216;2022-08-03T13:37:01;38.46;24.93
74224;SHT31;62585;49.706;18.216;2022-08-03T13:39:27;38.05;24.83
74224;SHT31;62585;49.706;18.216;2022-08-03T13:41:52;38.36;24.50
74224;SHT31;62585;49.706;18.216;2022-08-03T13:44:18;38.12;24.78
74224;SHT31;62585;49.706;18.216;2022-08-03T13:46:45;38.92;25.06
74224;SHT31;62585;49.706;18.216;2022-08-03T13:49:11;39.61;24.89
74224;SHT31;62585;49.706;18.216;2022-08-03T13:51:37;40.17;23.03
74224;SHT31;62585;49.706;18.216;2022-08-03T13:54:02;39.73;22.94
74224;SHT31;62585;49.706;18.216;2022-08-03T13:56:29;39.77;23.11
74224;SHT31;62585;49.706;18.216;2022-08-03T13:58:55;39.93;23.98
74224;SHT31;62585;49.706;18.216;2022-08-03T14:01:21;40.14;23.24
74224;SHT31;62585;49.706;18.216;2022-08-03T14:03:47;40.22;23.53
74224;SHT31;62585;49.706;18.216;2022-08-03T14:06:14;40.60;23.08
74224;SHT31;62585;49.706;18.216;2022-08-03T14:08:40;41.30;22.32
74224;SHT31;62585;49.706;18.216;2022-08-03T14:11:05;41.44;22.56
74224;SHT31;62585;49.706;18.216;2022-08-03T14:13:31;41.48;23.12
74224;SHT31;62585;49.706;18.216;2022-08-03T14:15:57;40.22;22.68
74224;SHT31;62585;49.706;18.216;2022-08-03T14:18:23;39.13;23.92
74224;SHT31;62585;49.706;18.216;2022-08-03T14:20:48;38.03;25.16
74224;SHT31;62585;49.706;18.216;2022-08-03T14:23:14;36.91;26.20
74224;SHT31;62585;49.706;18.216;2022-08-03T14:25:41;36.59;27.07
74224;SHT31;62585;49.706;18.216;2022-08-03T14:28:07;36.04;26.95
74224;SHT31;62585;49.706;18.216;2022-08-03T14:30:33;35.90;28.09
74224;SHT31;62585;49.706;18.216;2022-08-03T14:32:59;35.97;27.69
74224;SHT31;62585;49.706;18.216;2022-08-03T14:35:25;36.73;26.66
74224;SHT31;62585;49.706;18.216;2022-08-03T14:37:50;37.39;25.49
74224;SHT31;62585;49.706;18.216;2022-08-03T14:40:17;38.19;24.68
74224;SHT31;62585;49.706;18.216;2022-08-03T14:42:43;38.98;24.48
74224;SHT31;62585;49.706;18.216;2022-08-03T14:45:09;39.35;24.38
74224;SHT31;62585;49.706;18.216;2022-08-03T14:47:35;38.19;24.90
74224;SHT31;62585;49.706;18.216;2022-08-03T14:50:01;37.48;27.28
74224;SHT31;62585;49.706;18.216;2022-08-03T14:52:30;36.91;26.83
74224;SHT31;62585;49.706;18.216;2022-08-03T14:54:56;36.06;28.40
74224;SHT31;62585;49.706;18.216;2022-08-03T14:57:21;35.29;30.01
74224;SHT31;62585;49.706;18.216;2022-08-03T14:59:47;34.81;28.65
74224;SHT31;62585;49.706;18.216;2022-08-03T15:02:13;34.64;29.08
74224;SHT31;62585;49.706;18.216;2022-08-03T15:04:39;34.65;29.02
74224;SHT31;62585;49.706;18.216;2022-08-03T15:07:05;34.94;29.73
74224;SHT31;62585;49.706;18.216;2022-08-03T15:09:31;36.02;28.43
74224;SHT31;62585;49.706;18.216;2022-08-03T15:11:57;36.38;26.66
74224;SHT31;62585;49.706;18.216;2022-08-03T15:14:23;36.27;27.25
74224;SHT31;62585;49.706;18.216;2022-08-03T15:16:49;36.69;26.78
74224;SHT31;62585;49.706;18.216;2022-08-03T15:19:15;37.08;26.72
74224;SHT31;62585;49.706;18.216;2022-08-03T15:21:41;37.76;26.45
74224;SHT31;62585;49.706;18.216;2022-08-03T15:24:07;38.10;26.26
74224;SHT31;62585;49.706;18.216;2022-08-03T15:26:33;37.99;25.24
74224;SHT31;62585;49.706;18.216;2022-08-03T15:28:58;37.71;25.04
74224;SHT31;62585;49.706;18.216;2022-08-03T15:31:24;37.04;26.57
74224;SHT31;62585;49.706;18.216;2022-08-03T15:33:50;36.14;27.79
74224;SHT31;62585;49.706;18.216;2022-08-03T15:36:17;36.32;27.06
74224;SHT31;62585;49.706;18.216;2022-08-03T15:38:43;36.24;27.57
74224;SHT31;62585;49.706;18.216;2022-08-03T15:41:08;36.21;28.42
74224;SHT31;62585;49.706;18.216;2022-08-03T15:43:34;35.84;28.05
74224;SHT31;62585;49.706;18.216;2022-08-03T15:46:00;35.39;28.19
74224;SHT31;62585;49.706;18.216;2022-08-03T15:48:26;34.89;28.63
74224;SHT31;62585;49.706;18.216;2022-08-03T15:50:51;34.41;29.22
74224;SHT31;62585;49.706;18.216;2022-08-03T15:53:19;34.54;29.79
74224;SHT31;62585;49.706;18.216;2022-08-03T15:55:44;34.17;30.37
74224;SHT31;62585;49.706;18.216;2022-08-03T15:58:10;34.10;30.65
74224;SHT31;62585;49.706;18.216;2022-08-03T16:00:36;34.00;30.27
74224;SHT31;62585;49.706;18.216;2022-08-03T16:03:02;34.07;30.06
74224;SHT31;62585;49.706;18.216;2022-08-03T16:05:28;33.93;30.63
74224;SHT31;62585;49.706;18.216;2022-08-03T16:07:53;33.92;30.15
74224;SHT31;62585;49.706;18.216;2022-08-03T16:10:19;33.82;30.31
74224;SHT31;62585;49.706;18.216;2022-08-03T16:12:47;33.62;30.69
74224;SHT31;62585;49.706;18.216;2022-08-03T16:15:13;33.37;31.69
74224;SHT31;62585;49.706;18.216;2022-08-03T16:17:39;33.32;30.61
74224;SHT31;62585;49.706;18.216;2022-08-03T16:20:07;33.08;31.22
74224;SHT31;62585;49.706;18.216;2022-08-03T16:22:33;33.00;31.56
74224;SHT31;62585;49.706;18.216;2022-08-03T16:24:59;33.22;32.45
74224;SHT31;62585;49.706;18.216;2022-08-03T16:27:25;33.20;31.61
74224;SHT31;62585;49.706;18.216;2022-08-03T16:29:51;33.40;31.27
74224;SHT31;62585;49.706;18.216;2022-08-03T16:32:17;33.28;30.95
74224;SHT31;62585;49.706;18.216;2022-08-03T16:34:43;32.96;31.34
74224;SHT31;62585;49.706;18.216;2022-08-03T16:37:12;32.82;31.71
74224;SHT31;62585;49.706;18.216;2022-08-03T16:39:37;32.31;31.92
74224;SHT31;62585;49.706;18.216;2022-08-03T16:42:03;32.09;32.09
74224;SHT31;62585;49.706;18.216;2022-08-03T16:44:29;32.12;32.51
74224;SHT31;62585;49.706;18.216;2022-08-03T16:46:55;32.21;32.06
74224;SHT31;62585;49.706;18.216;2022-08-03T16:49:21;32.17;32.76
74224;SHT31;62585;49.706;18.216;2022-08-03T16:51:47;32.32;32.89
74224;SHT31;62585;49.706;18.216;2022-08-03T16:54:12;32.39;33.30
74224;SHT31;62585;49.706;18.216;2022-08-03T16:56:40;32.21;32.49
74224;SHT31;62585;49.706;18.216;2022-08-03T16:59:06;32.24;32.90
74224;SHT31;62585;49.706;18.216;2022-08-03T17:01:32;32.12;33.85
74224;SHT31;62585;49.706;18.216;2022-08-03T17:03:59;32.09;32.57
74224;SHT31;62585;49.706;18.216;2022-08-03T17:06:25;32.18;33.34
74224;SHT31;62585;49.706;18.216;2022-08-03T17:08:51;32.14;33.16
74224;SHT31;62585;49.706;18.216;2022-08-03T17:11:17;32.15;34.47
74224;SHT31;62585;49.706;18.216;2022-08-03T17:13:43;31.90;33.43
74224;SHT31;62585;49.706;18.216;2022-08-03T17:16:11;32.07;33.59
74224;SHT31;62585;49.706;18.216;2022-08-03T17:19:05;31.94;33.96
74224;SHT31;62585;49.706;18.216;2022-08-03T17:21:33;31.63;32.99
74224;SHT31;62585;49.706;18.216;2022-08-03T17:24:09;31.49;33.64
74224;SHT31;62585;49.706;18.216;2022-08-03T17:26:46;31.60;34.03
74224;SHT31;62585;49.706;18.216;2022-08-03T17:29:13;31.63;33.27
74224;SHT31;62585;49.706;18.216;2022-08-03T17:31:41;31.63;33.75
74224;SHT31;62585;49.706;18.216;2022-08-03T17:34:07;31.19;34.78
74224;SHT31;62585;49.706;18.216;2022-08-03T17:36:33;31.12;34.48
74224;SHT31;62585;49.706;18.216;2022-08-03T17:38:59;31.19;34.53
74224;SHT31;62585;49.706;18.216;2022-08-03T17:41:25;31.16;34.61
74224;SHT31;62585;49.706;18.216;2022-08-03T17:43:54;31.12;34.67
74224;SHT31;62585;49.706;18.216;2022-08-03T17:46:21;30.96;34.84
74224;SHT31;62585;49.706;18.216;2022-08-03T17:48:47;31.06;34.57
74224;SHT31;62585;49.706;18.216;2022-08-03T17:56:56;30.86;36.26
74224;SHT31;62585;49.706;18.216;2022-08-03T18:05:35;30.58;37.03
74224;SHT31;62585;49.706;18.216;2022-08-03T18:08:01;30.48;36.76
74224;SHT31;62585;49.706;18.216;2022-08-03T18:10:30;30.40;37.07
74224;SHT31;62585;49.706;18.216;2022-08-03T18:13:11;30.29;37.64
74224;SHT31;62585;49.706;18.216;2022-08-03T18:15:51;30.24;37.38
74224;SHT31;62585;49.706;18.216;2022-08-03T18:18:18;30.24;37.44
74224;SHT31;62585;49.706;18.216;2022-08-03T18:20:50;30.16;38.29
74224;SHT31;62585;49.706;18.216;2022-08-03T18:23:15;30.13;38.55
74224;SHT31;62585;49.706;18.216;2022-08-03T18:25:42;30.08;38.61
74224;SHT31;62585;49.706;18.216;2022-08-03T18:28:10;29.95;39.13
74224;SHT31;62585;49.706;18.216;2022-08-03T18:30:36;29.76;39.47
74224;SHT31;62585;49.706;18.216;2022-08-03T18:33:02;29.85;39.24
74224;SHT31;62585;49.706;18.216;2022-08-03T18:35:29;29.72;39.45
74224;SHT31;62585;49.706;18.216;2022-08-03T18:37:57;29.61;39.74
74224;SHT31;62585;49.706;18.216;2022-08-03T18:40:23;29.54;40.29
74224;SHT31;62585;49.706;18.216;2022-08-03T18:42:49;29.50;40.96
74224;SHT31;62585;49.706;18.216;2022-08-03T18:45:15;29.48;40.13
74224;SHT31;62585;49.706;18.216;2022-08-03T18:47:56;29.41;41.41
74224;SHT31;62585;49.706;18.216;2022-08-03T18:50:33;29.37;40.78
74224;SHT31;62585;49.706;18.216;2022-08-03T18:53:15;29.25;41.41
74224;SHT31;62585;49.706;18.216;2022-08-03T18:55:49;29.30;41.36
74224;SHT31;62585;49.706;18.216;2022-08-03T18:58:24;29.13;42.53
74224;SHT31;62585;49.706;18.216;2022-08-03T19:01:09;29.11;42.12
74224;SHT31;62585;49.706;18.216;2022-08-03T19:03:41;29.08;42.14
74224;SHT31;62585;49.706;18.216;2022-08-03T19:06:17;29.04;42.88
74224;SHT31;62585;49.706;18.216;2022-08-03T19:08:48;28.92;42.47
74224;SHT31;62585;49.706;18.216;2022-08-03T19:11:44;28.72;42.91
74224;SHT31;62585;49.706;18.216;2022-08-03T19:14:13;28.69;42.51
74224;SHT31;62585;49.706;18.216;2022-08-03T19:16:43;28.63;43.85
74224;SHT31;62585;49.706;18.216;2022-08-03T19:19:14;28.56;43.52
74224;SHT31;62585;49.706;18.216;2022-08-03T19:21:43;28.62;44.61
74224;SHT31;62585;49.706;18.216;2022-08-03T19:24:11;28.65;43.36
74224;SHT31;62585;49.706;18.216;2022-08-03T19:26:38;28.45;44.56
74224;SHT31;62585;49.706;18.216;2022-08-03T19:29:06;28.52;42.62
74224;SHT31;62585;49.706;18.216;2022-08-03T19:31:36;28.34;43.54
74224;SHT31;62585;49.706;18.216;2022-08-03T19:34:02;28.37;42.99
74224;SHT31;62585;49.706;18.216;2022-08-03T19:36:28;28.22;43.15
74224;SHT31;62585;49.706;18.216;2022-08-03T19:38:55;28.12;43.72
74224;SHT31;62585;49.706;18.216;2022-08-03T19:41:23;27.94;44.02
74224;SHT31;62585;49.706;18.216;2022-08-03T19:43:55;27.84;44.13
74224;SHT31;62585;49.706;18.216;2022-08-03T19:46:27;27.71;44.37
74224;SHT31;62585;49.706;18.216;2022-08-03T19:49:05;27.56;45.20
74224;SHT31;62585;49.706;18.216;2022-08-03T19:51:35;27.60;45.74
74224;SHT31;62585;49.706;18.216;2022-08-03T19:54:02;27.64;45.42
74224;SHT31;62585;49.706;18.216;2022-08-03T19:56:29;27.59;46.49
74224;SHT31;62585;49.706;18.216;2022-08-03T19:58:57;27.50;46.19
74224;SHT31;62585;49.706;18.216;2022-08-03T20:01:24;27.47;46.14
74224;SHT31;62585;49.706;18.216;2022-08-03T20:03:50;27.49;46.99
74224;SHT31;62585;49.706;18.216;2022-08-03T20:06:20;27.22;47.41
74224;SHT31;62585;49.706;18.216;2022-08-03T20:08:47;27.19;47.57
74224;SHT31;62585;49.706;18.216;2022-08-03T20:11:13;26.95;47.97
74224;SHT31;62585;49.706;18.216;2022-08-03T20:13:39;26.87;48.20
74224;SHT31;62585;49.706;18.216;2022-08-03T20:16:08;26.77;48.54
74224;SHT31;62585;49.706;18.216;2022-08-03T20:18:33;26.73;48.59
74224;SHT31;62585;49.706;18.216;2022-08-03T20:21:04;26.61;49.07
74224;SHT31;62585;49.706;18.216;2022-08-03T20:23:33;26.60;48.80
74224;SHT31;62585;49.706;18.216;2022-08-03T20:26:02;26.50;49.12
74224;SHT31;62585;49.706;18.216;2022-08-03T20:28:46;26.49;50.18
74224;SHT31;62585;49.706;18.216;2022-08-03T20:31:13;26.50;50.34
74224;SHT31;62585;49.706;18.216;2022-08-03T20:33:38;26.29;49.71
74224;SHT31;62585;49.706;18.216;2022-08-03T20:36:04;26.30;50.19
74224;SHT31;62585;49.706;18.216;2022-08-03T20:38:30;26.16;50.36
74224;SHT31;62585;49.706;18.216;2022-08-03T20:40:56;26.13;50.35
74224;SHT31;62585;49.706;18.216;2022-08-03T20:43:22;26.05;50.45
74224;SHT31;62585;49.706;18.216;2022-08-03T20:45:48;25.98;50.44
74224;SHT31;62585;49.706;18.216;2022-08-03T20:48:13;25.82;51.22
74224;SHT31;62585;49.706;18.216;2022-08-03T20:50:40;25.74;51.44
74224;SHT31;62585;49.706;18.216;2022-08-03T20:53:06;25.65;51.80
74224;SHT31;62585;49.706;18.216;2022-08-03T20:55:32;25.58;52.15
74224;SHT31;62585;49.706;18.216;2022-08-03T20:57:59;25.67;51.83
74224;SHT31;62585;49.706;18.216;2022-08-03T21:00:24;25.64;51.91
74224;SHT31;62585;49.706;18.216;2022-08-03T21:02:50;25.70;52.04
74224;SHT31;62585;49.706;18.216;2022-08-03T21:05:16;25.61;52.18
74224;SHT31;62585;49.706;18.216;2022-08-03T21:07:51;25.48;52.74
74224;SHT31;62585;49.706;18.216;2022-08-03T21:10:18;25.43;52.90
74224;SHT31;62585;49.706;18.216;2022-08-03T21:13:11;25.38;53.17
74224;SHT31;62585;49.706;18.216;2022-08-03T21:15:39;25.22;53.70
74224;SHT31;62585;49.706;18.216;2022-08-03T21:18:10;25.19;53.83
74224;SHT31;62585;49.706;18.216;2022-08-03T21:20:37;25.03;54.11
74224;SHT31;62585;49.706;18.216;2022-08-03T21:23:08;24.92;54.81
74224;SHT31;62585;49.706;18.216;2022-08-03T21:25:33;24.89;55.12
74224;SHT31;62585;49.706;18.216;2022-08-03T21:28:00;24.76;55.74
74224;SHT31;62585;49.706;18.216;2022-08-03T21:30:28;24.69;56.32
74224;SHT31;62585;49.706;18.216;2022-08-03T21:32:56;24.57;56.66
74224;SHT31;62585;49.706;18.216;2022-08-03T21:35:23;24.55;56.75
74224;SHT31;62585;49.706;18.216;2022-08-03T21:37:49;24.48;56.86
74224;SHT31;62585;49.706;18.216;2022-08-03T21:40:35;24.64;56.29
74224;SHT31;62585;49.706;18.216;2022-08-03T21:43:01;24.41;57.03
74224;SHT31;62585;49.706;18.216;2022-08-03T21:45:27;24.41;56.98
74224;SHT31;62585;49.706;18.216;2022-08-03T21:47:53;24.32;57.56
74224;SHT31;62585;49.706;18.216;2022-08-03T21:50:21;24.28;57.58
74224;SHT31;62585;49.706;18.216;2022-08-03T21:52:47;24.21;57.97
74224;SHT31;62585;49.706;18.216;2022-08-03T21:55:14;24.27;57.67
74224;SHT31;62585;49.706;18.216;2022-08-03T21:57:42;24.17;57.91
74224;SHT31;62585;49.706;18.216;2022-08-03T22:00:14;24.16;58.13
74224;SHT31;62585;49.706;18.216;2022-08-03T22:02:43;23.97;58.88
74224;SHT31;62585;49.706;18.216;2022-08-03T22:05:09;23.97;58.85
74224;SHT31;62585;49.706;18.216;2022-08-03T22:07:37;23.93;59.41
74224;SHT31;62585;49.706;18.216;2022-08-03T22:10:05;23.93;59.22
74224;SHT31;62585;49.706;18.216;2022-08-03T22:12:31;23.93;59.05
74224;SHT31;62585;49.706;18.216;2022-08-03T22:14:59;23.86;59.38
74224;SHT31;62585;49.706;18.216;2022-08-03T22:17:25;23.69;59.79
74224;SHT31;62585;49.706;18.216;2022-08-03T22:19:52;23.69;59.69
74224;SHT31;62585;49.706;18.216;2022-08-03T22:22:22;23.65;59.86
74224;SHT31;62585;49.706;18.216;2022-08-03T22:24:51;23.52;60.35
74224;SHT31;62585;49.706;18.216;2022-08-03T22:27:19;23.49;60.37
74224;SHT31;62585;49.706;18.216;2022-08-03T22:29:55;23.32;60.74
74224;SHT31;62585;49.706;18.216;2022-08-03T22:32:21;23.35;60.61
74224;SHT31;62585;49.706;18.216;2022-08-03T22:34:47;23.41;60.63
74224;SHT31;62585;49.706;18.216;2022-08-03T22:37:14;23.32;60.67
74224;SHT31;62585;49.706;18.216;2022-08-03T22:39:42;23.34;60.62
74224;SHT31;62585;49.706;18.216;2022-08-03T22:42:07;23.24;60.85
74224;SHT31;62585;49.706;18.216;2022-08-03T22:44:34;23.14;61.23
74224;SHT31;62585;49.706;18.216;2022-08-03T22:47:01;23.04;61.63
74224;SHT31;62585;49.706;18.216;2022-08-03T22:49:27;22.97;62.00
74224;SHT31;62585;49.706;18.216;2022-08-03T22:51:53;22.83;62.54
74224;SHT31;62585;49.706;18.216;2022-08-03T22:54:20;22.77;62.65
74224;SHT31;62585;49.706;18.216;2022-08-03T22:56:48;22.77;62.62
74224;SHT31;62585;49.706;18.216;2022-08-03T22:59:14;22.67;62.75
74224;SHT31;62585;49.706;18.216;2022-08-03T23:01:42;22.79;62.39
74224;SHT31;62585;49.706;18.216;2022-08-03T23:04:08;22.71;62.63
74224;SHT31;62585;49.706;18.216;2022-08-03T23:06:36;22.71;62.44
74224;SHT31;62585;49.706;18.216;2022-08-03T23:09:10;22.69;62.30
74224;SHT31;62585;49.706;18.216;2022-08-03T23:11:42;22.64;62.67
74224;SHT31;62585;49.706;18.216;2022-08-03T23:14:13;22.60;62.78
74224;SHT31;62585;49.706;18.216;2022-08-03T23:16:41;22.61;62.57
74224;SHT31;62585;49.706;18.216;2022-08-03T23:19:08;22.59;62.80
74224;SHT31;62585;49.706;18.216;2022-08-03T23:21:35;22.56;62.95
74224;SHT31;62585;49.706;18.216;2022-08-03T23:24:03;22.55;63.08
74224;SHT31;62585;49.706;18.216;2022-08-03T23:26:30;22.35;63.66
74224;SHT31;62585;49.706;18.216;2022-08-03T23:28:59;22.33;63.41
74224;SHT31;62585;49.706;18.216;2022-08-03T23:31:30;22.39;63.23
74224;SHT31;62585;49.706;18.216;2022-08-03T23:33:58;22.32;63.50
74224;SHT31;62585;49.706;18.216;2022-08-03T23:36:49;22.21;63.74
74224;SHT31;62585;49.706;18.216;2022-08-03T23:39:17;22.22;63.69
74224;SHT31;62585;49.706;18.216;2022-08-03T23:41:44;22.19;63.97
74224;SHT31;62585;49.706;18.216;2022-08-03T23:44:11;22.13;64.16
74224;SHT31;62585;49.706;18.216;2022-08-03T23:46:38;21.91;64.63
74224;SHT31;62585;49.706;18.216;2022-08-03T23:49:04;21.85;64.92
74224;SHT31;62585;49.706;18.216;2022-08-03T23:51:41;21.87;65.15
74224;SHT31;62585;49.706;18.216;2022-08-03T23:59:48;21.80;65.52
